createdAt,value
2018-11-05T00:00:22.226Z,71.87
2018-11-05T00:02:53.387Z,74.17
2018-11-05T00:05:23.817Z,69.47
2018-11-05T00:07:53.929Z,74.27
2018-11-05T00:10:24.446Z,73.53
2018-11-05T00:12:54.873Z,70.10
2018-11-05T00:15:25.217Z,69.67
2018-11-05T00:17:56.040Z,76.50
2018-11-05T00:20:25.848Z,72.70
2018-11-05T00:22:56.386Z,75.47
2018-11-05T00:25:26.800Z,80.37
2018-11-05T00:27:57.018Z,83.03
2018-11-05T00:30:27.859Z,83.57
2018-11-05T00:32:58.486Z,80.87
2018-11-05T00:35:30.446Z,92.27
2018-11-05T00:38:01.303Z,94.20
2018-11-05T00:40:31.926Z,94.63
2018-11-05T00:43:02.559Z,96.20
2018-11-05T00:45:32.871Z,101.40
2018-11-05T00:48:03.418Z,99.83
2018-11-05T00:50:33.821Z,98.40
2018-11-05T00:53:04.453Z,99.70
2018-11-05T00:55:34.900Z,105.57
2018-11-05T00:58:05.721Z,95.97
2018-11-05T01:00:36.100Z,100.83
2018-11-05T01:03:06.465Z,104.03
2018-11-05T01:05:36.378Z,104.27
2018-11-05T01:08:06.316Z,101.40
2018-11-05T01:10:36.428Z,91.53
2018-11-05T01:13:06.731Z,92.87
2018-11-05T01:15:36.761Z,93.30
2018-11-05T01:18:06.464Z,86.80
2018-11-05T01:20:36.376Z,98.87
2018-11-05T01:23:06.205Z,95.80
2018-11-05T01:25:36.101Z,91.47
2018-11-05T01:28:06.121Z,95.17
2018-11-05T01:30:36.565Z,97.90
2018-11-05T01:33:06.871Z,98.27
2018-11-05T01:35:37.006Z,105.20
2018-11-05T01:38:06.924Z,104.87
2018-11-05T01:40:37.118Z,106.10
2018-11-05T01:43:07.262Z,88.43
2018-11-05T01:45:37.252Z,94.43
2018-11-05T01:48:07.687Z,101.13
2018-11-05T01:50:37.801Z,112.23
2018-11-05T01:53:08.231Z,91.70
2018-11-05T01:55:38.450Z,94.60
2018-11-05T01:58:09.383Z,93.80
2018-11-05T02:00:39.930Z,88.37
2018-11-05T02:03:09.848Z,93.37
2018-11-05T02:05:39.749Z,92.70
2018-11-05T02:08:09.566Z,89.70
2018-11-05T02:10:39.373Z,92.30
2018-11-05T02:13:09.249Z,110.07
2018-11-05T02:15:39.085Z,85.80
2018-11-05T02:18:09.416Z,83.67
2018-11-05T02:20:39.842Z,103.77
2018-11-05T02:23:09.861Z,86.73
2018-11-05T02:25:39.996Z,82.00
2018-11-05T02:28:10.399Z,84.80
2018-11-05T02:30:40.322Z,87.13
2018-11-05T02:33:10.945Z,95.23
2018-11-05T02:35:40.965Z,78.40
2018-11-05T02:38:10.880Z,82.83
2018-11-05T02:40:41.407Z,78.70
2018-11-05T02:43:11.526Z,80.03
2018-11-05T02:45:41.556Z,76.90
2018-11-05T02:48:11.661Z,81.20
2018-11-05T02:50:41.787Z,84.70
2018-11-05T02:53:12.005Z,80.37
2018-11-05T02:55:42.324Z,92.43
2018-11-05T02:58:12.454Z,92.03
2018-11-05T03:00:42.871Z,91.33
2018-11-05T03:03:13.210Z,93.90
2018-11-05T03:05:43.108Z,87.43
2018-11-05T03:08:13.233Z,98.07
2018-11-05T03:10:43.025Z,97.63
2018-11-05T03:13:12.976Z,103.87
2018-11-05T03:15:43.071Z,103.03
2018-11-05T03:18:13.191Z,104.20
2018-11-05T03:20:43.512Z,93.23
2018-11-05T03:23:13.836Z,93.73
2018-11-05T03:25:43.980Z,108.90
2018-11-05T03:28:14.178Z,99.33
2018-11-05T03:30:44.398Z,83.60
2018-11-05T03:33:14.827Z,98.50
2018-11-05T03:35:45.522Z,84.20
2018-11-05T03:38:15.377Z,86.83
2018-11-05T03:40:45.069Z,91.83
2018-11-05T03:43:15.006Z,86.37
2018-11-05T03:45:44.811Z,90.43
2018-11-05T03:48:14.620Z,96.40
2018-11-05T03:50:44.117Z,101.20
2018-11-05T03:53:13.860Z,95.33
2018-11-05T03:55:43.941Z,85.23
2018-11-05T03:58:13.867Z,94.30
2018-11-05T04:00:43.984Z,90.40
2018-11-05T04:03:14.059Z,91.07
2018-11-05T04:05:44.220Z,88.57
2018-11-05T04:08:14.552Z,82.50
2018-11-05T04:10:44.459Z,89.53
2018-11-05T04:13:14.786Z,79.93
2018-11-05T04:15:45.437Z,82.10
2018-11-05T04:18:15.839Z,94.27
2018-11-05T04:20:45.857Z,78.87
2018-11-05T04:23:16.278Z,94.20
2018-11-05T04:25:46.820Z,77.33
2018-11-05T04:28:16.932Z,73.40
2018-11-05T04:30:46.743Z,83.23
2018-11-05T04:33:16.860Z,87.67
2018-11-05T04:35:46.771Z,82.90
2018-11-05T04:38:16.490Z,85.93
2018-11-05T04:40:46.081Z,81.60
2018-11-05T04:43:15.802Z,80.03
2018-11-05T04:45:45.710Z,74.30
2018-11-05T04:48:15.112Z,77.53
2018-11-05T04:50:45.133Z,82.10
2018-11-05T04:53:14.978Z,79.77
2018-11-05T04:55:45.059Z,78.30
2018-11-05T04:58:14.870Z,75.60
2018-11-05T05:00:44.682Z,88.97
2018-11-05T05:03:14.563Z,81.73
2018-11-05T05:05:44.309Z,85.97
2018-11-05T05:08:14.225Z,75.23
2018-11-05T05:10:44.341Z,86.40
2018-11-05T05:13:14.252Z,88.80
2018-11-05T05:15:44.295Z,85.20
2018-11-05T05:18:14.094Z,98.63
2018-11-05T05:20:43.892Z,84.47
2018-11-05T05:23:13.499Z,81.80
2018-11-05T05:25:43.416Z,99.23
2018-11-05T05:28:13.840Z,83.70
2018-11-05T05:30:43.966Z,87.50
2018-11-05T05:33:14.360Z,89.60
2018-11-05T05:35:43.992Z,99.47
2018-11-05T05:38:13.802Z,93.90
2018-11-05T05:40:43.761Z,93.77
2018-11-05T05:43:14.155Z,82.27
2018-11-05T05:45:44.059Z,91.77
2018-11-05T05:48:13.776Z,94.90
2018-11-05T05:50:43.795Z,83.33
2018-11-05T05:53:13.389Z,90.70
2018-11-05T05:55:43.816Z,93.13
2018-11-05T05:58:14.449Z,105.80
2018-11-05T06:00:44.469Z,96.47
2018-11-05T06:03:14.785Z,94.83
2018-11-05T06:05:45.830Z,97.43
2018-11-05T06:08:15.843Z,90.83
2018-11-05T06:10:45.757Z,81.17
2018-11-05T06:13:15.467Z,90.37
2018-11-05T06:15:45.445Z,94.33
2018-11-05T06:18:15.320Z,93.20
2018-11-05T06:20:44.909Z,95.90
2018-11-05T06:23:15.141Z,101.17
2018-11-05T06:25:45.357Z,104.93
2018-11-05T06:28:15.935Z,93.33
2018-11-05T06:30:45.795Z,91.93
2018-11-05T06:33:16.979Z,92.10
2018-11-05T06:35:46.652Z,89.73
2018-11-05T06:38:17.170Z,96.90
2018-11-05T06:40:47.298Z,97.90
2018-11-05T06:43:17.203Z,86.03
2018-11-05T06:45:47.028Z,93.67
2018-11-05T06:48:17.258Z,96.00
2018-11-05T06:50:47.251Z,99.93
2018-11-05T06:53:17.891Z,89.67
2018-11-05T06:55:47.896Z,96.83
2018-11-05T06:58:17.619Z,90.77
2018-11-05T07:00:47.443Z,92.50
2018-11-05T07:03:17.557Z,89.70
2018-11-05T07:05:47.539Z,94.37
2018-11-05T07:08:17.176Z,87.57
2018-11-05T07:10:46.874Z,75.93
2018-11-05T07:13:16.885Z,87.10
2018-11-05T07:15:46.616Z,80.27
2018-11-05T07:18:17.099Z,86.73
2018-11-05T07:20:47.163Z,78.60
2018-11-05T07:23:16.953Z,87.33
2018-11-05T07:25:46.461Z,84.70
2018-11-05T07:28:16.290Z,83.43
2018-11-05T07:30:46.192Z,77.77
2018-11-05T07:33:16.035Z,71.83
2018-11-05T07:35:45.806Z,76.30
2018-11-05T07:38:15.411Z,66.33
2018-11-05T07:40:45.009Z,75.93
2018-11-05T07:43:15.007Z,77.87
2018-11-05T07:45:45.028Z,71.83
2018-11-05T07:48:14.888Z,66.63
2018-11-05T07:50:44.720Z,70.40
2018-11-05T07:53:14.927Z,74.03
2018-11-05T07:55:44.706Z,68.90
2018-11-05T07:58:14.626Z,69.80
2018-11-05T08:00:48.547Z,63.27
2018-11-05T08:03:18.137Z,65.87
2018-11-05T08:05:47.947Z,69.27
2018-11-05T08:08:17.772Z,64.43
2018-11-05T08:10:47.476Z,66.67
2018-11-05T08:13:17.381Z,64.53
2018-11-05T08:15:48.429Z,67.00
2018-11-05T08:18:18.976Z,62.87
2018-11-05T08:20:48.987Z,75.03
2018-11-05T08:23:18.476Z,65.23
2018-11-05T08:25:48.487Z,62.23
2018-11-05T08:28:18.408Z,59.20
2018-11-05T08:30:47.909Z,57.90
2018-11-05T08:33:18.249Z,62.20
2018-11-05T08:35:48.167Z,56.43
2018-11-05T08:38:17.857Z,66.40
2018-11-05T08:40:47.666Z,76.57
2018-11-05T08:43:17.408Z,69.93
2018-11-05T08:45:47.189Z,61.97
2018-11-05T08:48:16.901Z,56.67
2018-11-05T08:50:46.665Z,52.93
2018-11-05T08:53:16.939Z,54.30
2018-11-05T08:55:46.847Z,51.60
2018-11-05T08:58:16.867Z,48.03
2018-11-05T09:00:50.885Z,48.03
2018-11-05T09:03:20.580Z,42.47
2018-11-05T09:05:50.389Z,43.57
2018-11-05T09:08:19.894Z,42.27
2018-11-05T09:10:49.687Z,44.93
2018-11-05T09:13:19.211Z,39.80
2018-11-05T09:15:49.247Z,39.10
2018-11-05T09:18:19.247Z,39.33
2018-11-05T09:20:49.353Z,37.03
2018-11-05T09:23:19.182Z,90.57
2018-11-05T09:25:48.991Z,41.57
2018-11-05T09:28:18.604Z,34.47
2018-11-05T09:30:48.087Z,38.90
2018-11-05T09:33:17.812Z,31.83
2018-11-05T09:35:47.729Z,32.00
2018-11-05T09:38:17.429Z,30.57
2018-11-05T09:40:47.347Z,31.23
2018-11-05T09:43:17.048Z,35.07
2018-11-05T09:45:46.768Z,31.00
2018-11-05T09:48:16.681Z,27.30
2018-11-05T09:50:46.416Z,30.93
2018-11-05T09:53:16.006Z,29.43
2018-11-05T09:55:45.709Z,27.53
2018-11-05T09:58:15.427Z,32.70
2018-11-05T10:00:45.126Z,30.20
2018-11-05T10:03:19.034Z,26.30
2018-11-05T10:05:48.777Z,33.27
2018-11-05T10:08:19.067Z,27.30
2018-11-05T10:10:48.795Z,28.97
2018-11-05T10:13:18.786Z,27.57
2018-11-05T10:15:48.907Z,30.83
2018-11-05T10:18:19.853Z,27.90
2018-11-05T10:20:49.867Z,24.67
2018-11-05T10:23:19.678Z,25.07
2018-11-05T10:25:49.487Z,23.90
2018-11-05T10:28:18.989Z,25.80
2018-11-05T10:30:48.810Z,27.83
2018-11-05T10:33:18.842Z,24.00
2018-11-05T10:35:52.623Z,26.30
2018-11-05T10:38:22.361Z,26.20
2018-11-05T10:40:52.350Z,28.33
2018-11-05T10:43:22.261Z,26.93
2018-11-05T10:45:52.290Z,26.13
2018-11-05T10:48:22.004Z,24.90
2018-11-05T10:50:51.809Z,24.70
2018-11-05T10:53:22.227Z,24.00
2018-11-05T10:55:52.146Z,32.07
2018-11-05T10:58:22.649Z,31.23
2018-11-05T11:00:57.407Z,30.70
2018-11-05T11:03:32.968Z,30.00
2018-11-05T11:06:03.478Z,71.60
2018-11-05T11:08:33.384Z,26.27
2018-11-05T11:11:03.708Z,25.07
2018-11-05T11:13:34.018Z,25.57
2018-11-05T11:16:03.848Z,29.03
2018-11-05T11:18:33.347Z,23.93
2018-11-05T11:21:03.057Z,25.87
2018-11-05T11:23:33.200Z,26.27
2018-11-05T11:26:03.293Z,28.87
2018-11-05T11:28:33.144Z,23.07
2018-11-05T11:31:02.817Z,23.83
2018-11-05T11:33:32.837Z,27.90
2018-11-05T11:36:03.047Z,26.40
2018-11-05T11:38:33.277Z,28.07
2018-11-05T11:41:03.399Z,21.53
2018-11-05T11:43:33.105Z,24.93
2018-11-05T11:46:02.977Z,25.60
2018-11-05T11:48:33.133Z,27.67
2018-11-05T11:51:02.856Z,23.83
2018-11-05T11:53:33.016Z,27.40
2018-11-05T11:56:02.364Z,22.83
2018-11-05T11:58:32.795Z,22.70
2018-11-05T12:01:03.789Z,21.63
2018-11-05T12:03:33.546Z,24.30
2018-11-05T12:06:03.256Z,21.37
2018-11-05T12:08:33.268Z,21.23
2018-11-05T12:11:03.206Z,23.83
2018-11-05T12:13:32.906Z,24.37
2018-11-05T12:16:02.909Z,21.83
2018-11-05T12:18:32.822Z,24.47
2018-11-05T12:21:02.839Z,21.13
2018-11-05T12:23:32.860Z,21.33
2018-11-05T12:26:02.989Z,20.27
2018-11-05T12:28:33.407Z,26.47
2018-11-05T12:31:02.809Z,21.17
2018-11-05T12:33:32.410Z,21.37
2018-11-05T12:36:01.913Z,25.53
2018-11-05T12:38:31.755Z,23.73
2018-11-05T12:41:01.848Z,22.00
2018-11-05T12:43:31.656Z,22.43
2018-11-05T12:46:01.773Z,25.37
2018-11-05T12:48:31.280Z,26.00
2018-11-05T12:51:01.911Z,22.40
2018-11-05T12:53:32.956Z,19.80
2018-11-05T12:56:03.427Z,16.90
2018-11-05T12:58:33.101Z,17.03
2018-11-05T13:01:03.012Z,20.20
2018-11-05T13:03:33.457Z,26.80
2018-11-05T13:06:03.237Z,20.87
2018-11-05T13:08:33.151Z,20.10
2018-11-05T13:11:03.377Z,19.37
2018-11-05T13:13:33.208Z,22.40
2018-11-05T13:16:02.898Z,18.30
2018-11-05T13:18:32.817Z,19.20
2018-11-05T13:21:02.731Z,19.70
2018-11-05T13:23:37.251Z,17.07
2018-11-05T13:26:08.199Z,16.17
2018-11-05T13:28:39.147Z,16.33
2018-11-05T13:31:09.348Z,15.93
2018-11-05T13:33:39.768Z,15.13
2018-11-05T13:36:10.607Z,15.73
2018-11-05T13:38:40.669Z,15.53
2018-11-05T13:41:10.231Z,14.17
2018-11-05T13:43:40.037Z,12.60
2018-11-05T13:46:13.555Z,16.03
2018-11-05T13:48:43.513Z,18.60
2018-11-05T13:51:12.757Z,16.60
2018-11-05T13:53:42.977Z,14.83
2018-11-05T13:56:12.907Z,16.07
2018-11-05T13:58:42.828Z,23.93
2018-11-05T14:01:12.719Z,25.83
2018-11-05T14:06:30.896Z,24.87
2018-11-05T14:09:01.306Z,20.57
2018-11-05T14:11:32.038Z,21.53
2018-11-05T14:14:02.523Z,20.30
2018-11-05T14:16:32.543Z,22.33
2018-11-05T14:19:02.408Z,21.63
2018-11-05T14:21:32.820Z,21.40
2018-11-05T14:24:02.934Z,17.37
2018-11-05T14:26:32.546Z,14.90
2018-11-05T14:29:02.773Z,20.27
2018-11-05T14:31:32.677Z,23.13
2018-11-05T14:34:02.807Z,18.67
2018-11-05T14:36:33.388Z,18.30
2018-11-05T14:39:03.758Z,19.00
2018-11-05T14:41:47.057Z,28.30
2018-11-05T14:44:17.916Z,42.23
2018-11-05T14:46:47.628Z,28.07
2018-11-05T14:49:17.947Z,27.20
2018-11-05T14:51:48.168Z,23.80
2018-11-05T14:54:18.493Z,21.77
2018-11-05T14:56:48.408Z,32.37
2018-11-05T14:59:18.833Z,41.37
2018-11-05T15:01:49.058Z,46.67
2018-11-05T15:04:18.996Z,47.23
2018-11-05T15:06:48.779Z,47.30
2018-11-05T15:09:18.691Z,33.97
2018-11-05T15:11:48.828Z,33.90
2018-11-05T15:14:18.835Z,26.97
2018-11-05T15:16:48.336Z,20.60
2018-11-05T15:19:18.519Z,19.23
2018-11-05T15:21:48.168Z,20.90
2018-11-05T15:24:18.307Z,17.90
2018-11-05T15:26:48.127Z,19.10
2018-11-05T15:29:18.029Z,19.37
2018-11-05T15:31:48.437Z,19.47
2018-11-05T15:34:19.489Z,20.53
2018-11-05T15:36:49.707Z,20.30
2018-11-05T15:39:20.227Z,20.03
2018-11-05T15:41:50.342Z,19.27
2018-11-05T15:44:20.167Z,28.07
2018-11-05T15:46:50.380Z,30.40
2018-11-05T15:49:20.397Z,18.20
2018-11-05T15:51:50.417Z,15.57
2018-11-05T15:54:20.027Z,12.40
2018-11-05T15:56:50.847Z,10.90
2018-11-05T15:59:20.867Z,14.37
2018-11-05T16:01:50.882Z,9.60
2018-11-05T16:04:21.656Z,10.60
2018-11-05T16:06:52.147Z,12.60
2018-11-05T16:09:22.181Z,12.43
2018-11-05T16:11:52.288Z,14.00
2018-11-05T16:14:22.829Z,12.87
2018-11-05T16:16:53.141Z,12.80
2018-11-05T16:19:23.982Z,12.80
2018-11-05T16:21:54.021Z,13.37
2018-11-05T16:24:24.075Z,12.20
2018-11-05T16:26:54.022Z,12.53
2018-11-05T16:29:23.862Z,18.83
2018-11-05T16:31:54.293Z,21.80
2018-11-05T16:34:24.621Z,24.80
2018-11-05T16:36:55.006Z,26.60
2018-11-05T16:39:25.029Z,20.23
2018-11-05T16:41:55.761Z,19.73
2018-11-05T16:44:25.569Z,22.83
2018-11-05T16:46:55.902Z,23.13
2018-11-05T16:49:27.982Z,21.63
2018-11-05T16:51:57.901Z,21.87
2018-11-05T16:54:27.597Z,19.63
2018-11-05T16:56:57.912Z,19.13
2018-11-05T16:59:27.944Z,16.17
2018-11-05T17:01:58.932Z,20.03
2018-11-05T17:04:28.789Z,19.23
2018-11-05T17:06:58.621Z,18.63
2018-11-05T17:09:28.708Z,18.03
2018-11-05T17:11:59.661Z,22.90
2018-11-05T17:14:32.231Z,24.63
2018-11-05T17:17:02.461Z,19.33
2018-11-05T17:19:35.036Z,19.20
2018-11-05T17:22:07.501Z,18.80
2018-11-05T17:24:38.340Z,17.37
2018-11-05T17:27:08.654Z,19.83
2018-11-05T17:29:39.301Z,20.47
2018-11-05T17:32:10.029Z,18.00
2018-11-05T17:34:40.469Z,21.80
2018-11-05T17:37:10.984Z,22.93
2018-11-05T17:39:41.191Z,22.87
2018-11-05T17:42:10.941Z,27.23
2018-11-05T17:44:41.437Z,24.23
2018-11-05T17:47:11.849Z,23.10
2018-11-05T17:49:42.692Z,65.33
2018-11-05T17:52:12.941Z,24.97
2018-11-05T17:54:44.188Z,24.07
2018-11-05T17:57:14.581Z,23.13
2018-11-05T17:59:45.222Z,26.00
2018-11-05T18:02:19.637Z,29.67
2018-11-05T18:04:50.009Z,29.13
2018-11-05T18:07:52.037Z,28.30
2018-11-05T18:10:23.484Z,30.63
2018-11-05T18:13:01.805Z,28.63
2018-11-05T18:15:36.097Z,30.00
2018-11-05T18:18:09.424Z,29.97
2018-11-05T18:20:39.427Z,35.37
2018-11-05T18:23:09.941Z,30.53
2018-11-05T18:25:40.317Z,30.13
2018-11-05T18:28:10.902Z,33.13
2018-11-05T18:30:41.429Z,32.47
2018-11-05T18:33:13.078Z,31.07
2018-11-05T18:35:43.724Z,32.27
2018-11-05T18:38:14.382Z,30.83
2018-11-05T18:40:44.780Z,30.30
2018-11-05T18:43:15.928Z,34.60
2018-11-05T18:45:46.244Z,35.10
2018-11-05T18:48:16.901Z,33.43
2018-11-05T18:50:47.308Z,30.87
2018-11-05T18:53:18.980Z,31.27
2018-11-05T18:55:50.341Z,32.20
2018-11-05T18:58:21.229Z,35.50
2018-11-05T19:00:51.869Z,36.77
2018-11-05T19:03:22.097Z,39.87
2018-11-05T19:05:52.436Z,36.10
2018-11-05T19:08:22.645Z,40.27
2018-11-05T19:10:52.964Z,40.37
2018-11-05T19:13:23.181Z,32.67
2018-11-05T19:15:53.905Z,36.37
2018-11-05T19:18:24.383Z,35.20
2018-11-05T19:20:54.348Z,42.60
2018-11-05T19:23:24.889Z,40.20
2018-11-05T19:25:55.221Z,42.93
2018-11-05T19:28:25.378Z,42.17
2018-11-05T19:30:55.748Z,41.53
2018-11-05T19:33:25.861Z,44.27
2018-11-05T19:35:55.871Z,44.87
2018-11-05T19:38:26.109Z,38.23
2018-11-05T19:40:56.541Z,36.13
2018-11-05T19:43:28.621Z,33.60
2018-11-05T19:45:59.861Z,37.57
2018-11-05T19:48:30.064Z,34.00
2018-11-05T19:51:00.380Z,33.87
2018-11-05T19:53:30.935Z,32.00
2018-11-05T19:56:02.828Z,38.67
2018-11-05T19:58:32.789Z,34.33
2018-11-05T20:01:02.918Z,39.00
2018-11-05T20:03:33.024Z,32.80
2018-11-05T20:06:04.447Z,32.77
2018-11-05T20:08:36.949Z,31.97
2018-11-05T20:11:08.221Z,27.53
2018-11-05T20:13:40.669Z,26.37
2018-11-05T20:16:12.741Z,24.63
2018-11-05T20:18:43.499Z,26.67
2018-11-05T20:21:14.509Z,24.43
2018-11-05T20:23:44.741Z,27.57
2018-11-05T20:26:15.269Z,24.50
2018-11-05T20:28:45.814Z,26.53
2018-11-05T20:31:16.394Z,22.43
2018-11-05T20:33:47.331Z,23.50
2018-11-05T20:36:18.421Z,21.37
2018-11-05T20:38:48.341Z,23.83
2018-11-05T20:41:24.270Z,23.60
2018-11-05T20:43:58.581Z,22.33
2018-11-05T20:46:29.373Z,23.53
2018-11-05T20:49:02.221Z,22.27
2018-11-05T20:51:34.373Z,20.27
2018-11-05T20:54:07.397Z,19.30
2018-11-05T20:56:38.821Z,24.60
2018-11-05T20:59:12.005Z,22.03
2018-11-05T21:01:43.238Z,19.20
2018-11-05T21:04:14.590Z,19.97
2018-11-05T21:06:47.401Z,22.93
2018-11-05T21:09:19.161Z,20.27
2018-11-05T21:11:50.469Z,19.60
2018-11-05T21:14:21.171Z,19.67
2018-11-05T21:16:53.183Z,20.90
2018-11-05T21:19:23.633Z,23.17
2018-11-05T21:21:54.292Z,19.57
2018-11-05T21:24:25.721Z,20.23
2018-11-05T21:26:57.840Z,20.13
2018-11-05T21:29:27.967Z,20.13
2018-11-05T21:31:59.939Z,20.07
2018-11-05T21:34:30.650Z,18.60
2018-11-05T21:37:02.433Z,20.27
2018-11-05T21:39:33.481Z,19.10
2018-11-05T21:42:03.989Z,19.53
2018-11-05T21:44:34.409Z,18.57
2018-11-05T21:47:04.736Z,20.30
2018-11-05T21:49:34.849Z,19.13
2018-11-05T21:52:05.181Z,16.73
2018-11-05T21:54:36.837Z,23.07
2018-11-05T21:57:12.493Z,20.67
2018-11-05T21:59:43.309Z,22.23
2018-11-05T22:02:14.149Z,23.07
2018-11-05T22:04:46.428Z,23.37
2018-11-05T22:07:16.767Z,21.00
2018-11-05T22:09:46.962Z,21.20
2018-11-05T22:12:16.981Z,23.57
2018-11-05T22:14:47.089Z,23.47
2018-11-05T22:17:17.429Z,24.87
2018-11-05T22:19:47.441Z,25.60
2018-11-05T22:22:17.972Z,22.10
2018-11-05T22:24:48.521Z,24.13
2018-11-05T22:27:18.843Z,22.60
2018-11-05T22:29:49.351Z,24.60
2018-11-05T22:32:20.181Z,20.97
2018-11-05T22:34:50.411Z,21.90
2018-11-05T22:37:20.913Z,23.03
2018-11-05T22:39:51.771Z,25.73
2018-11-05T22:42:22.409Z,20.33
2018-11-05T22:44:53.006Z,23.93
2018-11-05T22:47:23.661Z,18.73
2018-11-05T22:49:54.010Z,21.10
2018-11-05T22:52:24.930Z,24.93
2018-11-05T22:54:55.458Z,22.87
2018-11-05T22:57:25.989Z,23.73
2018-11-05T22:59:56.407Z,23.57
2018-11-05T23:02:27.549Z,20.13
2018-11-05T23:04:58.408Z,18.17
2018-11-05T23:07:28.804Z,20.33
2018-11-05T23:09:59.445Z,21.37
2018-11-05T23:12:29.873Z,22.30
2018-11-05T23:15:00.808Z,20.90
2018-11-05T23:17:31.540Z,20.50
2018-11-05T23:20:01.969Z,19.03
2018-11-05T23:22:32.486Z,22.77
2018-11-05T23:25:02.818Z,20.87
2018-11-05T23:27:33.343Z,21.40
2018-11-05T23:30:03.882Z,19.73
2018-11-05T23:32:33.887Z,17.37
2018-11-05T23:35:04.517Z,19.50
2018-11-05T23:37:34.951Z,20.87
2018-11-05T23:40:05.891Z,23.43
2018-11-05T23:42:36.306Z,21.33
2018-11-05T23:45:07.863Z,16.50
2018-11-05T23:47:38.490Z,19.73
2018-11-05T23:50:09.006Z,19.13
2018-11-05T23:52:39.756Z,19.47
2018-11-05T23:55:10.797Z,18.20
2018-11-05T23:57:41.530Z,24.43
